createdAt,value
2018-05-10T00:00:09.634Z,79.60
2018-05-10T00:02:37.901Z,80.20
2018-05-10T00:05:06.199Z,78.90
2018-05-10T00:07:33.694Z,78.90
2018-05-10T00:10:01.225Z,79.60
2018-05-10T00:12:29.491Z,80.30
2018-05-10T00:14:57.810Z,80.30
2018-05-10T00:17:25.312Z,80.30
2018-05-10T00:19:53.609Z,80.80
2018-05-10T00:22:21.130Z,80.60
2018-05-10T00:24:48.673Z,81.10
2018-05-10T00:27:16.220Z,81.60
2018-05-10T00:29:43.716Z,81.70
2018-05-10T00:32:11.259Z,81.30
2018-05-10T00:34:38.761Z,81.10
2018-05-10T00:37:06.312Z,80.70
2018-05-10T00:39:34.582Z,80.30
2018-05-10T00:42:02.882Z,80.20
2018-05-10T00:44:31.146Z,80.20
2018-05-10T00:46:59.459Z,80.20
2018-05-10T00:49:26.971Z,80.20
2018-05-10T00:51:54.515Z,80.20
2018-05-10T00:54:33.943Z,80.30
2018-05-10T00:57:01.483Z,80.10
2018-05-10T00:59:28.992Z,80.90
2018-05-10T01:01:57.306Z,80.00
2018-05-10T01:04:24.802Z,80.00
2018-05-10T01:06:52.341Z,80.00
2018-05-10T01:09:19.868Z,80.00
2018-05-10T01:11:47.401Z,80.00
2018-05-10T01:14:14.946Z,80.00
2018-05-10T01:16:42.447Z,80.30
2018-05-10T01:19:10.795Z,80.20
2018-05-10T01:21:38.295Z,79.80
2018-05-10T01:24:05.846Z,80.10
2018-05-10T01:26:33.346Z,80.30
2018-05-10T01:29:00.885Z,80.40
2018-05-10T01:31:28.391Z,80.70
2018-05-10T01:33:56.697Z,81.20
2018-05-10T01:36:24.214Z,81.10
2018-05-10T01:38:51.762Z,81.60
2018-05-10T01:41:19.274Z,81.40
2018-05-10T01:43:46.809Z,81.20
2018-05-10T01:46:14.309Z,81.20
2018-05-10T01:48:41.846Z,81.60
2018-05-10T01:51:09.357Z,81.80
2018-05-10T01:53:36.890Z,82.10
2018-05-10T01:56:04.390Z,82.40
2018-05-10T01:58:31.963Z,82.70
2018-05-10T02:00:59.460Z,83.80
2018-05-10T02:03:26.992Z,83.80
2018-05-10T02:05:54.688Z,83.80
2018-05-10T02:08:22.195Z,83.80
2018-05-10T02:10:49.732Z,83.80
2018-05-10T02:13:18.118Z,83.80
2018-05-10T02:15:45.662Z,83.40
2018-05-10T02:18:13.157Z,83.80
2018-05-10T02:20:41.464Z,83.80
2018-05-10T02:23:08.968Z,84.30
2018-05-10T02:25:36.502Z,83.80
2018-05-10T02:28:04.008Z,83.80
2018-05-10T02:30:32.316Z,83.20
2018-05-10T02:32:59.814Z,83.10
2018-05-10T02:35:27.355Z,83.20
2018-05-10T02:37:54.860Z,83.10
2018-05-10T02:40:23.168Z,83.10
2018-05-10T02:42:50.674Z,83.10
2018-05-10T02:45:18.237Z,82.60
2018-05-10T02:47:45.738Z,83.00
2018-05-10T02:50:13.287Z,82.60
2018-05-10T02:52:40.789Z,82.60
2018-05-10T02:55:08.291Z,83.50
2018-05-10T02:57:36.595Z,82.90
2018-05-10T03:00:04.179Z,82.80
2018-05-10T03:02:34.768Z,82.90
2018-05-10T03:05:03.211Z,82.60
2018-05-10T03:07:30.744Z,82.90
2018-05-10T03:09:58.255Z,83.00
2018-05-10T03:12:25.786Z,83.00
2018-05-10T03:14:53.285Z,83.60
2018-05-10T03:17:20.823Z,82.60
2018-05-10T03:19:48.316Z,82.80
2018-05-10T03:22:15.845Z,82.00
2018-05-10T03:24:44.115Z,83.50
2018-05-10T03:27:12.422Z,83.10
2018-05-10T03:29:39.923Z,83.10
2018-05-10T03:32:07.454Z,82.70
2018-05-10T03:34:34.966Z,83.00
2018-05-10T03:37:03.270Z,83.60
2018-05-10T03:39:30.778Z,82.80
2018-05-10T03:41:58.312Z,83.40
2018-05-10T03:44:25.827Z,83.40
2018-05-10T03:46:54.142Z,82.90
2018-05-10T03:49:21.654Z,82.80
2018-05-10T03:51:49.959Z,82.90
2018-05-10T03:54:17.483Z,82.90
2018-05-10T03:56:44.977Z,83.50
2018-05-10T03:59:12.632Z,83.20
2018-05-10T04:01:40.190Z,83.50
2018-05-10T04:04:34.263Z,83.10
2018-05-10T04:07:13.571Z,83.50
2018-05-10T04:09:52.914Z,83.50
2018-05-10T04:12:21.392Z,83.50
2018-05-10T04:14:48.976Z,83.10
2018-05-10T04:17:17.379Z,83.10
2018-05-10T04:19:45.050Z,83.00
2018-05-10T04:22:12.649Z,82.40
2018-05-10T04:24:40.206Z,82.70
2018-05-10T04:27:07.726Z,82.60
2018-05-10T04:29:35.383Z,82.00
2018-05-10T04:32:02.932Z,81.80
2018-05-10T04:34:30.566Z,81.60
2018-05-10T04:36:58.165Z,81.50
2018-05-10T04:39:25.703Z,81.30
2018-05-10T04:41:53.967Z,81.40
2018-05-10T04:44:21.462Z,80.80
2018-05-10T04:46:48.996Z,80.40
2018-05-10T04:49:17.256Z,80.50
2018-05-10T04:51:45.571Z,80.30
2018-05-10T04:54:13.076Z,80.20
2018-05-10T04:56:40.606Z,79.60
2018-05-10T04:59:08.098Z,79.50
2018-05-10T05:01:35.643Z,79.20
2018-05-10T05:04:03.155Z,78.80
2018-05-10T05:06:30.694Z,78.30
2018-05-10T05:08:59.019Z,77.40
2018-05-10T05:11:27.274Z,76.70
2018-05-10T05:13:54.771Z,76.60
2018-05-10T05:16:22.319Z,76.70
2018-05-10T05:18:49.821Z,76.80
2018-05-10T05:21:18.127Z,77.00
2018-05-10T05:23:45.706Z,77.00
2018-05-10T05:26:13.186Z,77.00
2018-05-10T05:28:40.687Z,76.80
2018-05-10T05:31:08.211Z,76.10
2018-05-10T05:33:35.783Z,75.90
2018-05-10T05:36:04.059Z,75.50
2018-05-10T05:38:32.367Z,75.00
2018-05-10T05:40:59.880Z,75.00
2018-05-10T05:43:27.476Z,74.80
2018-05-10T05:45:55.731Z,74.70
2018-05-10T05:48:24.210Z,74.20
2018-05-10T05:50:52.498Z,74.20
2018-05-10T05:53:20.800Z,73.80
2018-05-10T05:55:49.759Z,73.80
2018-05-10T05:58:17.446Z,73.80
2018-05-10T06:00:45.027Z,73.60
2018-05-10T06:03:12.516Z,73.40
2018-05-10T06:05:40.075Z,73.40
2018-05-10T06:08:07.606Z,73.30
2018-05-10T06:10:35.106Z,73.40
2018-05-10T06:13:02.649Z,73.40
2018-05-10T06:15:30.289Z,73.30
2018-05-10T06:17:57.951Z,73.50
2018-05-10T06:20:25.462Z,72.80
2018-05-10T06:22:53.742Z,72.40
2018-05-10T06:25:22.664Z,72.90
2018-05-10T06:27:50.166Z,72.90
2018-05-10T06:30:17.708Z,72.40
2018-05-10T06:32:45.954Z,71.80
2018-05-10T06:35:13.580Z,71.70
2018-05-10T06:37:41.260Z,72.00
2018-05-10T06:40:08.916Z,71.80
2018-05-10T06:42:37.264Z,71.00
2018-05-10T06:45:05.485Z,71.00
2018-05-10T06:47:38.708Z,70.80
2018-05-10T06:50:06.248Z,70.50
2018-05-10T06:52:33.742Z,70.30
2018-05-10T06:55:01.789Z,69.80
2018-05-10T06:57:29.306Z,69.90
2018-05-10T06:59:56.847Z,69.80
2018-05-10T07:02:24.375Z,69.90
2018-05-10T07:04:51.912Z,69.90
2018-05-10T07:07:19.471Z,69.60
2018-05-10T07:09:47.093Z,69.30
2018-05-10T07:12:17.235Z,69.20
2018-05-10T07:17:23.977Z,68.80
2018-05-10T07:19:51.488Z,68.80
2018-05-10T07:22:19.073Z,68.40
2018-05-10T07:24:47.127Z,68.50
2018-05-10T07:27:14.786Z,68.30
2018-05-10T07:29:42.947Z,68.20
2018-05-10T07:32:10.495Z,68.10
2018-05-10T07:34:38.718Z,68.10
2018-05-10T07:37:06.806Z,67.90
2018-05-10T07:39:34.322Z,67.70
2018-05-10T07:42:01.972Z,67.50
2018-05-10T07:44:29.416Z,67.70
2018-05-10T07:46:57.757Z,67.80
2018-05-10T07:49:25.281Z,67.80
2018-05-10T07:52:01.869Z,67.40
2018-05-10T07:54:31.368Z,67.30
2018-05-10T07:56:58.882Z,67.10
2018-05-10T07:59:27.226Z,66.70
2018-05-10T08:01:56.274Z,66.70
2018-05-10T08:04:26.163Z,66.80
2018-05-10T08:06:54.483Z,66.80
2018-05-10T08:09:26.799Z,66.80
2018-05-10T08:11:56.376Z,66.70
2018-05-10T08:14:28.462Z,65.80
2018-05-10T08:16:56.010Z,65.60
2018-05-10T08:19:23.491Z,65.80
2018-05-10T08:21:51.000Z,65.70
2018-05-10T08:24:18.608Z,65.50
2018-05-10T08:26:46.047Z,65.20
2018-05-10T08:29:13.577Z,65.30
2018-05-10T08:31:41.078Z,65.20
2018-05-10T08:34:09.561Z,65.10
2018-05-10T08:36:37.207Z,64.90
2018-05-10T08:39:04.655Z,64.90
2018-05-10T08:41:32.187Z,64.20
2018-05-10T08:43:59.725Z,64.30
2018-05-10T08:46:27.262Z,63.90
2018-05-10T08:48:54.813Z,64.10
2018-05-10T08:51:22.319Z,64.00
2018-05-10T08:53:49.841Z,63.90
2018-05-10T08:56:17.370Z,64.10
2018-05-10T08:58:44.876Z,64.10
2018-05-10T09:01:12.455Z,63.80
2018-05-10T09:03:40.711Z,63.10
2018-05-10T09:06:09.041Z,63.10
2018-05-10T09:08:36.547Z,63.10
2018-05-10T09:11:04.092Z,63.20
2018-05-10T09:13:31.590Z,63.20
2018-05-10T09:15:59.128Z,63.30
2018-05-10T09:18:26.650Z,63.30
2018-05-10T09:20:54.995Z,63.40
2018-05-10T09:23:22.511Z,63.30
2018-05-10T09:25:50.967Z,62.90
2018-05-10T09:28:18.521Z,62.80
2018-05-10T09:30:46.246Z,62.90
2018-05-10T09:33:13.798Z,62.70
2018-05-10T09:35:41.527Z,62.30
2018-05-10T09:38:09.105Z,62.70
2018-05-10T09:40:36.671Z,62.70
2018-05-10T09:43:05.992Z,62.50
2018-05-10T09:45:33.534Z,62.40
2018-05-10T09:48:01.083Z,62.10
2018-05-10T09:50:29.396Z,61.80
2018-05-10T09:52:56.950Z,61.70
2018-05-10T09:55:24.503Z,61.50
2018-05-10T09:57:54.553Z,61.20
2018-05-10T10:00:30.254Z,61.70
2018-05-10T10:02:58.533Z,61.20
2018-05-10T10:05:26.804Z,61.20
2018-05-10T10:07:55.095Z,60.90
2018-05-10T10:10:25.201Z,60.90
2018-05-10T10:12:53.467Z,60.70
2018-05-10T10:15:21.773Z,60.70
2018-05-10T10:17:49.271Z,60.80
2018-05-10T10:20:16.806Z,60.50
2018-05-10T10:22:44.303Z,60.70
2018-05-10T10:25:11.866Z,60.80
2018-05-10T10:27:39.365Z,61.40
2018-05-10T10:30:06.900Z,60.60
2018-05-10T10:32:35.209Z,60.10
2018-05-10T10:35:03.171Z,60.10
2018-05-10T10:37:30.675Z,60.00
2018-05-10T10:39:58.163Z,59.30
2018-05-10T10:42:26.478Z,58.40
2018-05-10T10:44:54.022Z,58.30
2018-05-10T10:47:21.531Z,58.20
2018-05-10T10:49:49.021Z,58.50
2018-05-10T10:52:17.340Z,58.90
2018-05-10T10:54:44.901Z,59.00
2018-05-10T10:57:12.417Z,59.00
2018-05-10T10:59:40.747Z,58.00
2018-05-10T11:02:08.272Z,58.00
2018-05-10T11:04:35.771Z,58.10
2018-05-10T11:07:03.306Z,58.20
2018-05-10T11:09:30.818Z,57.60
2018-05-10T11:11:58.357Z,57.50
2018-05-10T11:14:25.854Z,56.80
2018-05-10T11:16:54.163Z,56.20
2018-05-10T11:19:21.655Z,56.30
2018-05-10T11:21:49.194Z,56.40
2018-05-10T11:24:16.701Z,56.30
2018-05-10T11:26:44.995Z,55.50
2018-05-10T11:29:12.514Z,55.60
2018-05-10T11:31:40.055Z,55.10
2018-05-10T11:34:07.633Z,55.00
2018-05-10T11:36:35.170Z,55.20
2018-05-10T11:39:02.665Z,55.10
2018-05-10T11:41:30.983Z,55.50
2018-05-10T11:43:58.487Z,55.50
2018-05-10T11:46:26.033Z,55.30
2018-05-10T11:48:53.528Z,54.60
2018-05-10T11:51:21.944Z,54.30
2018-05-10T11:53:49.448Z,54.30
2018-05-10T11:56:16.951Z,54.40
2018-05-10T11:58:44.482Z,54.70
2018-05-10T12:01:12.745Z,54.90
2018-05-10T12:03:41.085Z,55.10
2018-05-10T12:06:08.719Z,55.00
2018-05-10T12:08:36.231Z,55.40
2018-05-10T12:11:03.743Z,56.30
2018-05-10T12:13:31.290Z,55.90
2018-05-10T12:15:58.800Z,56.00
2018-05-10T12:18:26.347Z,57.20
2018-05-10T12:20:53.847Z,57.10
2018-05-10T12:23:21.382Z,58.60
2018-05-10T12:25:48.894Z,57.30
2018-05-10T12:28:16.432Z,55.60
2018-05-10T12:30:43.932Z,55.40
2018-05-10T12:33:11.654Z,55.10
2018-05-10T12:35:39.931Z,54.20
2018-05-10T12:38:07.473Z,54.40
2018-05-10T12:40:34.975Z,54.60
2018-05-10T12:43:02.475Z,54.70
2018-05-10T12:45:30.045Z,54.10
2018-05-10T12:47:57.600Z,53.90
2018-05-10T12:50:25.146Z,54.60
2018-05-10T12:52:54.165Z,53.70
2018-05-10T12:55:23.786Z,52.20
2018-05-10T12:57:51.278Z,52.20
2018-05-10T13:00:18.819Z,52.20
2018-05-10T13:02:46.336Z,52.10
2018-05-10T13:05:13.907Z,50.30
2018-05-10T13:07:42.187Z,47.40
2018-05-10T13:10:10.524Z,46.40
2018-05-10T13:12:38.081Z,46.40
2018-05-10T13:15:05.623Z,44.30
2018-05-10T13:17:33.115Z,43.00
2018-05-10T13:20:00.809Z,42.40
2018-05-10T13:22:28.313Z,42.50
2018-05-10T13:24:55.850Z,38.80
2018-05-10T13:27:23.500Z,39.90
2018-05-10T13:29:50.957Z,39.10
2018-05-10T13:32:18.448Z,38.60
2018-05-10T13:34:46.003Z,36.60
2018-05-10T13:37:13.550Z,35.50
2018-05-10T13:39:41.686Z,34.00
2018-05-10T13:42:09.222Z,32.90
2018-05-10T13:44:36.723Z,31.20
2018-05-10T13:47:04.282Z,31.40
2018-05-10T13:49:31.783Z,31.60
2018-05-10T13:51:59.350Z,30.30
2018-05-10T13:54:26.858Z,30.90
2018-05-10T13:56:54.394Z,29.60
2018-05-10T13:59:22.655Z,27.80
2018-05-10T14:01:50.205Z,27.80
2018-05-10T14:04:17.703Z,27.10
2018-05-10T14:06:45.251Z,27.20
2018-05-10T14:09:13.522Z,26.80
2018-05-10T14:11:41.891Z,25.10
2018-05-10T14:14:12.272Z,25.20
2018-05-10T14:16:39.925Z,23.90
2018-05-10T14:19:07.354Z,22.90
2018-05-10T14:21:35.238Z,23.50
2018-05-10T14:24:02.751Z,22.70
2018-05-10T14:26:30.317Z,24.10
2018-05-10T14:28:57.849Z,24.70
2018-05-10T14:31:25.475Z,26.00
2018-05-10T14:33:52.962Z,26.90
2018-05-10T14:36:20.530Z,28.60
2018-05-10T14:38:48.139Z,29.50
2018-05-10T14:41:16.420Z,31.50
2018-05-10T14:43:43.993Z,31.60
2018-05-10T14:46:11.666Z,32.70
2018-05-10T14:48:39.221Z,33.50
2018-05-10T14:51:06.768Z,34.30
2018-05-10T14:53:34.330Z,35.00
2018-05-10T14:56:01.907Z,36.60
2018-05-10T14:58:29.466Z,38.00
2018-05-10T15:00:57.024Z,39.00
2018-05-10T15:03:24.571Z,39.90
2018-05-10T15:05:52.063Z,39.60
2018-05-10T15:08:19.586Z,40.80
2018-05-10T15:10:47.088Z,41.70
2018-05-10T15:13:14.623Z,42.10
2018-05-10T15:15:42.144Z,42.60
2018-05-10T15:18:10.472Z,43.40
2018-05-10T15:20:38.757Z,43.50
2018-05-10T15:23:06.289Z,43.50
2018-05-10T15:25:33.782Z,43.60
2018-05-10T15:28:01.325Z,43.00
2018-05-10T15:30:28.932Z,43.60
2018-05-10T15:32:56.483Z,43.90
2018-05-10T15:35:24.787Z,44.70
2018-05-10T15:37:52.300Z,44.80
2018-05-10T15:40:19.835Z,44.60
2018-05-10T15:42:47.325Z,44.60
2018-05-10T15:45:14.881Z,44.60
2018-05-10T15:47:42.378Z,46.00
2018-05-10T15:50:09.916Z,45.20
2018-05-10T15:52:38.233Z,46.40
2018-05-10T15:55:05.772Z,46.40
2018-05-10T15:57:33.324Z,46.70
2018-05-10T16:00:01.589Z,45.40
2018-05-10T16:02:29.956Z,45.10
2018-05-10T16:04:57.448Z,45.10
2018-05-10T16:07:25.028Z,45.30
2018-05-10T16:09:52.524Z,45.50
2018-05-10T16:12:20.043Z,46.00
2018-05-10T16:14:47.581Z,46.90
2018-05-10T16:17:15.119Z,46.80
2018-05-10T16:19:42.614Z,47.40
2018-05-10T16:22:10.150Z,47.70
2018-05-10T16:24:38.403Z,48.50
2018-05-10T16:27:05.936Z,48.50
2018-05-10T16:29:36.175Z,48.50
2018-05-10T16:32:03.720Z,48.80
2018-05-10T16:34:31.224Z,49.50
2018-05-10T16:36:58.723Z,49.80
2018-05-10T16:39:26.268Z,50.40
2018-05-10T16:41:53.767Z,50.40
2018-05-10T16:44:21.310Z,50.30
2018-05-10T16:46:48.806Z,50.20
2018-05-10T16:49:17.128Z,50.80
2018-05-10T16:51:44.626Z,50.70
2018-05-10T16:54:12.154Z,51.00
2018-05-10T16:56:39.662Z,51.80
2018-05-10T16:59:07.972Z,52.70
2018-05-10T17:01:35.499Z,52.70
2018-05-10T17:04:03.806Z,53.20
2018-05-10T17:06:31.312Z,53.20
2018-05-10T17:08:58.878Z,53.30
2018-05-10T17:11:26.373Z,53.60
2018-05-10T17:13:53.903Z,54.20
2018-05-10T17:16:22.158Z,54.90
2018-05-10T17:18:49.716Z,54.80
2018-05-10T17:21:17.219Z,55.50
2018-05-10T17:23:44.727Z,56.00
2018-05-10T17:26:12.252Z,56.00
2018-05-10T17:28:39.785Z,56.30
2018-05-10T17:31:07.284Z,56.50
2018-05-10T17:33:34.834Z,57.00
2018-05-10T17:36:02.327Z,57.50
2018-05-10T17:38:29.866Z,57.60
2018-05-10T17:40:57.417Z,57.70
2018-05-10T17:43:24.921Z,58.00
2018-05-10T17:45:52.459Z,58.10
2018-05-10T17:48:19.951Z,58.40
2018-05-10T17:50:50.872Z,58.80
2018-05-10T17:53:18.365Z,58.80
2018-05-10T17:55:45.903Z,58.10
2018-05-10T17:58:13.400Z,58.30
2018-05-10T18:00:40.909Z,57.80
2018-05-10T18:03:08.471Z,58.50
2018-05-10T18:05:35.974Z,58.40
2018-05-10T18:08:03.532Z,58.60
2018-05-10T18:10:31.036Z,59.00
2018-05-10T18:12:58.622Z,59.00
2018-05-10T18:15:26.889Z,60.10
2018-05-10T18:17:55.212Z,60.40
2018-05-10T18:20:22.712Z,60.40
2018-05-10T18:22:50.251Z,61.00
2018-05-10T18:25:17.744Z,60.80
2018-05-10T18:27:46.049Z,60.90
2018-05-10T18:30:13.544Z,60.80
2018-05-10T18:32:41.109Z,60.80
2018-05-10T18:35:08.603Z,60.40
2018-05-10T18:37:36.911Z,59.80
2018-05-10T18:40:04.414Z,59.80
2018-05-10T18:42:32.007Z,60.40
2018-05-10T18:45:00.262Z,60.80
2018-05-10T18:47:28.527Z,60.80
2018-05-10T18:49:56.830Z,60.80
2018-05-10T18:52:25.095Z,60.80
2018-05-10T18:54:53.457Z,60.80
2018-05-10T18:57:20.964Z,60.70
2018-05-10T18:59:48.485Z,60.60
2018-05-10T19:02:16.791Z,61.20
2018-05-10T19:04:44.313Z,61.20
2018-05-10T19:07:11.868Z,61.30
2018-05-10T19:09:39.406Z,62.30
2018-05-10T19:12:06.964Z,62.20
2018-05-10T19:14:34.479Z,62.80
2018-05-10T19:17:02.786Z,63.50
2018-05-10T19:19:30.279Z,63.50
2018-05-10T19:21:57.826Z,63.00
2018-05-10T19:24:25.360Z,64.10
2018-05-10T19:26:52.899Z,64.40
2018-05-10T19:29:20.415Z,64.70
2018-05-10T19:31:47.996Z,64.40
2018-05-10T19:34:15.568Z,64.50
2018-05-10T19:36:43.875Z,64.30
2018-05-10T19:39:11.377Z,64.20
2018-05-10T19:41:39.339Z,64.40
2018-05-10T19:44:06.853Z,65.10
2018-05-10T19:46:34.417Z,64.50
2018-05-10T19:49:01.923Z,64.40
2018-05-10T19:51:29.533Z,64.90
2018-05-10T19:53:57.031Z,64.40
2018-05-10T19:56:24.570Z,64.90
2018-05-10T19:58:52.075Z,65.30
2018-05-10T20:01:19.651Z,65.30
2018-05-10T20:03:47.192Z,65.60
2018-05-10T20:06:15.503Z,65.90
2018-05-10T20:08:43.039Z,65.20
2018-05-10T20:11:11.316Z,65.80
2018-05-10T20:13:39.689Z,66.10
2018-05-10T20:16:07.179Z,66.00
2018-05-10T20:18:34.842Z,65.40
2018-05-10T20:21:02.481Z,66.40
2018-05-10T20:23:30.047Z,66.90
2018-05-10T20:25:57.603Z,66.50
2018-05-10T20:28:25.263Z,67.30
2018-05-10T20:30:53.440Z,67.60
2018-05-10T20:33:20.988Z,67.50
2018-05-10T20:35:48.483Z,66.50
2018-05-10T20:38:16.035Z,68.20
2018-05-10T20:40:43.547Z,68.10
2018-05-10T20:43:11.125Z,68.10
2018-05-10T20:45:38.616Z,68.40
2018-05-10T20:48:06.131Z,68.00
2018-05-10T20:50:33.742Z,68.20
2018-05-10T20:53:01.242Z,68.50
2018-05-10T20:55:28.799Z,68.60
2018-05-10T20:57:56.292Z,69.00
2018-05-10T21:00:25.094Z,68.10
2018-05-10T21:02:52.606Z,69.10
2018-05-10T21:05:20.143Z,68.10
2018-05-10T21:07:47.643Z,68.00
2018-05-10T21:10:15.174Z,68.40
2018-05-10T21:12:42.675Z,68.80
2018-05-10T21:15:10.219Z,68.70
2018-05-10T21:17:37.722Z,68.80
2018-05-10T21:20:05.256Z,69.50
2018-05-10T21:22:32.762Z,69.80
2018-05-10T21:25:00.573Z,69.70
2018-05-10T21:27:28.083Z,70.00
2018-05-10T21:29:55.591Z,70.30
2018-05-10T21:32:23.192Z,70.80
2018-05-10T21:34:50.697Z,70.40
2018-05-10T21:37:18.235Z,70.50
2018-05-10T21:39:45.740Z,71.40
2018-05-10T21:42:13.273Z,70.50
2018-05-10T21:44:40.815Z,70.80
2018-05-10T21:47:08.417Z,71.30
2018-05-10T21:52:43.690Z,71.50
2018-05-10T21:55:11.198Z,70.60
2018-05-10T21:57:39.495Z,71.20
2018-05-10T22:00:07.018Z,71.10
2018-05-10T22:02:34.574Z,71.10
2018-05-10T22:05:02.079Z,70.90
2018-05-10T22:07:29.648Z,70.70
2018-05-10T22:09:57.291Z,70.60
2018-05-10T22:12:24.717Z,71.10
2018-05-10T22:14:52.259Z,70.40
2018-05-10T22:17:19.763Z,71.00
2018-05-10T22:19:48.066Z,71.40
2018-05-10T22:22:15.585Z,71.40
2018-05-10T22:24:43.131Z,71.90
2018-05-10T22:27:10.623Z,71.30
2018-05-10T22:29:38.171Z,71.40
2018-05-10T22:32:05.795Z,71.10
2018-05-10T22:34:33.335Z,71.30
2018-05-10T22:37:00.835Z,71.40
2018-05-10T22:39:29.142Z,71.90
2018-05-10T22:41:56.673Z,71.80
2018-05-10T22:44:24.291Z,71.80
2018-05-10T22:46:51.783Z,71.80
2018-05-10T22:49:19.323Z,71.70
2018-05-10T22:51:46.811Z,71.70
2018-05-10T22:54:15.111Z,71.80
2018-05-10T22:56:42.611Z,71.70
2018-05-10T22:59:10.932Z,72.10
2018-05-10T23:01:38.427Z,72.20
2018-05-10T23:04:05.967Z,71.70
2018-05-10T23:06:33.471Z,71.60
2018-05-10T23:09:01.175Z,71.60
2018-05-10T23:11:28.679Z,71.60
2018-05-10T23:13:56.181Z,71.60
2018-05-10T23:16:24.474Z,71.70
2018-05-10T23:18:51.966Z,71.60
2018-05-10T23:21:19.514Z,72.10
2018-05-10T23:23:47.007Z,71.50
2018-05-10T23:26:16.259Z,71.70
2018-05-10T23:28:43.759Z,71.50
2018-05-10T23:31:11.379Z,71.50
2018-05-10T23:33:38.866Z,72.30
2018-05-10T23:36:06.402Z,71.50
2018-05-10T23:38:33.897Z,72.20
2018-05-10T23:41:01.442Z,72.30
2018-05-10T23:43:29.079Z,72.40
2018-05-10T23:45:56.633Z,72.70
2018-05-10T23:48:24.132Z,72.00
2018-05-10T23:50:51.664Z,72.10
2018-05-10T23:53:20.102Z,71.40
2018-05-10T23:55:47.642Z,71.40
2018-05-10T23:58:15.146Z,71.40
